Time;durP1;ratioP1;P1;durP2;ratioP2;P2;SDS_P1;SDS_P2;PMS_P1;PMS_P2;Temp;Humidity;BMP_temperature;BMP_pressure;BME280_temperature;BME280_humidity;BME280_pressure;Samples;Min_cycle;Max_cycle;Signal;HPM_P1;HPM_P2
2021/07/07 00:01:15;;;;;;;15.13;12.40;;;;;;;;;;5014057;28;20026;-65
2021/07/07 00:03:42;;;;;;;14.48;12.30;;;;;;;;;;5013926;28;20112;-66
2021/07/07 00:06:08;;;;;;;22.25;16.02;;;;;;;;;;5014028;28;20496;-66
2021/07/07 00:08:34;;;;;;;16.48;14.05;;;;;;;;;;5013785;28;20021;-66
2021/07/07 00:11:02;;;;;;;13.32;11.90;;;;;;;;;;5014160;28;20100;-65
2021/07/07 00:13:28;;;;;;;13.15;11.77;;;;;;;;;;5013626;28;20034;-66
2021/07/07 00:15:54;;;;;;;15.68;13.00;;;;;;;;;;5013197;28;20021;-67
2021/07/07 00:18:20;;;;;;;14.23;12.52;;;;;;;;;;5013854;28;20054;-66
2021/07/07 00:20:54;;;;;;;13.15;11.77;;;;;;;;;;5013466;28;20034;-66
2021/07/07 00:23:20;;;;;;;13.93;11.65;;;;;;;;;;5013847;28;20065;-66
2021/07/07 00:25:46;;;;;;;15.20;12.52;;;;;;;;;;5013555;28;20021;-65
2021/07/07 00:28:12;;;;;;;13.00;11.35;;;;;;;;;;5014042;28;20431;-65
2021/07/07 00:30:38;;;;;;;13.63;11.18;;;;;;;;;;5013891;28;20056;-66
2021/07/07 00:33:05;;;;;;;15.60;12.75;;;;;;;;;;5013219;28;20033;-66
2021/07/07 00:35:31;;;;;;;15.55;11.90;;;;;;;;;;5013749;28;20095;-66
2021/07/07 00:37:57;;;;;;;13.88;11.85;;;;;;;;;;5013688;28;20529;-66
2021/07/07 00:40:23;;;;;;;14.75;11.40;;;;;;;;;;5013665;28;20029;-66
2021/07/07 00:42:49;;;;;;;13.40;11.68;;;;;;;;;;5013494;28;20020;-66
2021/07/07 00:45:16;;;;;;;14.32;11.88;;;;;;;;;;5013258;28;20026;-66
2021/07/07 00:47:43;;;;;;;13.40;12.00;;;;;;;;;;5013317;28;20026;-67
2021/07/07 00:50:10;;;;;;;15.90;11.75;;;;;;;;;;5013217;28;20025;-67
2021/07/07 00:52:36;;;;;;;13.10;11.57;;;;;;;;;;5013239;28;20096;-68
2021/07/07 00:55:03;;;;;;;14.18;12.60;;;;;;;;;;5012797;28;20117;-67
2021/07/07 00:57:34;;;;;;;13.30;11.95;;;;;;;;;;5011119;28;20362;-66
2021/07/07 01:00:00;;;;;;;13.38;11.77;;;;;;;;;;5013089;28;20025;-67
2021/07/07 01:02:27;;;;;;;15.10;12.40;;;;;;;;;;5013118;28;20029;-69
2021/07/07 01:04:53;;;;;;;16.17;13.23;;;;;;;;;;5013208;28;20022;-68
2021/07/07 01:07:20;;;;;;;15.77;13.52;;;;;;;;;;5013285;28;20042;-67
2021/07/07 01:09:46;;;;;;;16.50;13.65;;;;;;;;;;5012456;28;20065;-68
2021/07/07 01:12:12;;;;;;;15.85;13.45;;;;;;;;;;5012979;28;20492;-68
2021/07/07 01:14:38;;;;;;;17.25;13.65;;;;;;;;;;5012969;28;20125;-68
2021/07/07 01:17:04;;;;;;;18.02;13.25;;;;;;;;;;5012666;28;20034;-67
2021/07/07 01:19:31;;;;;;;13.52;12.18;;;;;;;;;;5012733;28;20037;-67
2021/07/07 01:21:57;;;;;;;14.30;12.75;;;;;;;;;;5012984;28;20026;-68
2021/07/07 01:24:23;;;;;;;13.73;12.25;;;;;;;;;;4994732;28;20029;-67
2021/07/07 01:26:49;;;;;;;13.27;11.98;;;;;;;;;;5012827;28;20108;-67
2021/07/07 01:29:16;;;;;;;13.50;12.18;;;;;;;;;;5012823;28;20030;-65
2021/07/07 01:31:43;;;;;;;13.43;12.02;;;;;;;;;;5013378;28;20022;-64
2021/07/07 01:34:09;;;;;;;12.80;11.60;;;;;;;;;;5012731;28;20477;-65
2021/07/07 01:36:36;;;;;;;14.25;12.18;;;;;;;;;;5012687;28;20026;-65
2021/07/07 01:39:04;;;;;;;15.50;12.38;;;;;;;;;;5012749;28;20112;-66
2021/07/07 01:41:30;;;;;;;13.45;12.13;;;;;;;;;;5012652;28;20037;-67
2021/07/07 01:43:56;;;;;;;14.25;12.30;;;;;;;;;;5012705;28;20030;-66
2021/07/07 01:46:22;;;;;;;14.05;12.45;;;;;;;;;;5012491;28;20391;-64
2021/07/07 01:48:48;;;;;;;13.20;11.90;;;;;;;;;;5012626;28;20022;-67
2021/07/07 01:51:14;;;;;;;14.27;12.77;;;;;;;;;;5012751;28;20026;-69
2021/07/07 01:53:40;;;;;;;16.25;11.95;;;;;;;;;;5012524;28;20028;-67
2021/07/07 01:56:06;;;;;;;13.32;11.90;;;;;;;;;;5013016;28;20034;-67
2021/07/07 01:58:32;;;;;;;12.68;11.38;;;;;;;;;;5012576;28;20478;-68
2021/07/07 02:00:59;;;;;;;13.43;12.07;;;;;;;;;;5012678;28;20030;-67
2021/07/07 02:03:25;;;;;;;14.23;12.73;;;;;;;;;;5018809;28;20056;-68
2021/07/07 02:05:51;;;;;;;13.90;12.48;;;;;;;;;;5025388;28;20483;-68
2021/07/07 02:08:17;;;;;;;13.85;12.45;;;;;;;;;;5019359;28;20030;-69
2021/07/07 02:10:43;;;;;;;15.77;12.75;;;;;;;;;;5012572;28;20365;-68
2021/07/07 02:13:10;;;;;;;16.08;12.85;;;;;;;;;;5012450;28;20029;-69
2021/07/07 02:15:36;;;;;;;14.23;12.23;;;;;;;;;;5012391;28;20017;-68
2021/07/07 02:18:03;;;;;;;14.82;13.38;;;;;;;;;;5012340;28;20036;-68
2021/07/07 02:20:30;;;;;;;13.45;12.07;;;;;;;;;;5012100;28;20435;-67
2021/07/07 02:22:56;;;;;;;13.45;12.18;;;;;;;;;;5016250;28;20031;-68
2021/07/07 02:25:27;;;;;;;14.13;12.65;;;;;;;;;;5016287;28;20550;-68
2021/07/07 02:27:54;;;;;;;14.43;12.88;;;;;;;;;;5002981;28;20018;-68
2021/07/07 02:30:21;;;;;;;14.23;11.90;;;;;;;;;;5016143;28;20517;-70
2021/07/07 02:32:47;;;;;;;15.52;12.75;;;;;;;;;;5015813;28;20029;-69
2021/07/07 02:35:15;;;;;;;14.75;13.25;;;;;;;;;;5015940;28;20037;-68
2021/07/07 02:37:42;;;;;;;14.85;12.32;;;;;;;;;;5016012;28;20118;-69
2021/07/07 02:40:09;;;;;;;15.18;11.90;;;588.90;1971.20;;;;;;5015851;28;20126;-69
2021/07/07 02:42:34;;;;;;;14.15;12.73;;;588.90;1971.20;;;;;;5015928;28;20022;-69
2021/07/07 02:45:01;;;;;;;13.80;12.40;;;589.00;1945.60;;;;;;5015725;28;20551;-68
2021/07/07 02:47:26;;;;;;;13.27;12.05;;;564.10;1996.80;;;;;;5015666;28;20105;-69
2021/07/07 02:49:52;;;;;;;14.55;12.80;;;588.90;1971.20;;;;;;5015371;28;20117;-69
2021/07/07 02:52:18;;;;;;;15.20;13.05;;;589.00;1945.60;;;;;;5015776;28;20030;-68
2021/07/07 02:54:44;;;;;;;15.23;13.57;;;589.00;1945.60;;;;;;5015648;28;20431;-68
2021/07/07 02:57:10;;;;;;;14.40;12.90;;;588.90;1971.20;;;;;;5015465;28;20018;-68
2021/07/07 02:59:36;;;;;;;15.10;12.63;;;588.90;1971.20;;;;;;5015738;28;20105;-68
2021/07/07 03:02:02;;;;;;;13.23;11.95;;;589.00;1945.60;;;;;;5015369;28;20101;-67
2021/07/07 03:04:28;;;;;;;15.85;13.02;;;;;;;;;;5015520;28;20034;-68
2021/07/07 03:06:54;;;;;;;23.52;15.75;;;588.80;1996.80;;;;;;5015479;28;20018;-67
2021/07/07 03:09:20;;;;;;;15.73;13.40;;;588.80;1996.80;;;;;;5015323;28;20476;-71
2021/07/07 03:11:46;;;;;;;14.45;13.05;;;;;;;;;;5015379;28;20033;-70
2021/07/07 03:14:12;;;;;;;15.65;12.50;;;;;;;;;;5015057;28;20030;-70
2021/07/07 03:16:38;;;;;;;15.75;12.95;;;564.00;1996.80;;;;;;5015254;28;20033;-70
2021/07/07 03:19:03;;;;;;;14.65;13.00;;;563.90;1996.80;;;;;;5014943;28;20038;-70
2021/07/07 03:21:29;;;;;;;14.90;13.07;;;563.90;2022.40;;;;;;5014958;28;20061;-69
2021/07/07 03:23:55;;;;;;;14.88;12.85;;;564.10;1996.80;;;;;;5015113;28;20033;-68
2021/07/07 03:26:20;;;;;;;14.88;12.43;;;564.10;1996.80;;;;;;5014997;28;20022;-69
2021/07/07 03:28:48;;;;;;;13.55;12.18;;;564.10;1996.80;;;;;;5015031;28;20022;-70
2021/07/07 03:31:14;;;;;;;16.52;13.10;;;564.10;1996.80;;;;;;5015050;28;20440;-68
2021/07/07 03:33:40;;;;;;;14.85;13.27;;;;;;;;;;5013817;28;20104;-70
2021/07/07 03:36:06;;;;;;;15.95;13.90;;;;;;;;;;5014823;28;20022;-71
2021/07/07 03:38:32;;;;;;;15.23;12.60;;;;;;;;;;5014921;28;20022;-70
2021/07/07 03:40:58;;;;;;;16.02;13.95;;;;;;;;;;5014797;28;20038;-70
2021/07/07 03:43:24;;;;;;;14.77;13.27;;;;;;;;;;5014641;28;20022;-69
2021/07/07 03:45:50;;;;;;;16.00;13.55;;;;;;;;;;5014722;28;20033;-69
2021/07/07 03:48:16;;;;;;;18.15;13.75;;;;;;;;;;5014372;28;20025;-68
2021/07/07 03:50:42;;;;;;;16.73;13.27;;;;;;;;;;5014501;28;20155;-67
2021/07/07 03:53:08;;;;;;;15.20;13.57;;;;;;;;;;5014513;28;20140;-68
2021/07/07 03:55:35;;;;;;;15.98;13.55;;;;;;;;;;5014847;28;20376;-69
2021/07/07 03:58:01;;;;;;;16.48;14.70;;;;;;;;;;5014551;28;20037;-70
2021/07/07 04:00:30;;;;;;;15.20;13.52;;;;;;;;;;5014385;28;20014;-71
2021/07/07 04:02:57;;;;;;;18.15;14.32;;;;;;;;;;5014358;28;20357;-72
2021/07/07 04:05:23;;;;;;;18.58;14.95;;;;;;;;;;5012790;28;20014;-69
2021/07/07 04:07:49;;;;;;;22.52;15.70;;;564.00;1996.80;;;;;;5014426;28;20100;-69
2021/07/07 04:10:17;;;;;;;15.77;14.07;;;563.90;2022.40;;;;;;5014132;28;20077;-70
2021/07/07 04:12:43;;;;;;;19.15;15.20;;;563.80;2048.00;;;;;;5014170;28;20014;-70
2021/07/07 04:15:12;;;;;;;16.23;14.60;;;563.90;2048.00;;;;;;5014137;28;20035;-71
2021/07/07 04:17:37;;;;;;;15.45;13.73;;;564.10;2022.40;;;;;;5014078;28;20010;-68
2021/07/07 04:20:06;;;;;;;15.50;13.52;;;564.00;2022.40;;;;;;5013813;28;20054;-67
2021/07/07 04:22:32;;;;;;;16.05;13.82;;;;;;;;;;5014044;28;20026;-68
2021/07/07 04:24:58;;;;;;;16.13;13.93;;;;;;;;;;5014066;28;20148;-68
2021/07/07 04:27:24;;;;;;;14.98;13.65;;;;;;;;;;5013773;28;20022;-68
2021/07/07 04:29:50;;;;;;;16.02;14.35;;;564.10;2022.40;;;;;;5013782;28;20503;-69
2021/07/07 04:32:18;;;;;;;16.58;14.18;;;564.00;2022.40;;;;;;5013730;28;20022;-68
2021/07/07 04:34:45;;;;;;;20.52;14.57;;;;;;;;;;5013433;28;20472;-69
2021/07/07 04:37:11;;;;;;;15.60;12.88;;;;;;;;;;5013832;28;20030;-69
2021/07/07 04:39:37;;;;;;;17.48;15.32;;;;;;;;;;5013542;28;20049;-69
2021/07/07 04:42:04;;;;;;;17.48;14.43;;;;;;;;;;5013703;28;20025;-68
2021/07/07 04:44:30;;;;;;;15.90;14.30;;;;;;;;;;5013543;28;20029;-70
2021/07/07 04:46:56;;;;;;;17.13;14.82;;;;;;;;;;5013493;28;20026;-68
2021/07/07 04:49:22;;;;;;;14.40;13.05;;;589.00;1971.20;;;;;;5013348;28;20104;-68
2021/07/07 04:51:47;;;;;;;17.95;14.13;;;588.90;1971.20;;;;;;5013328;28;20496;-68
2021/07/07 04:54:13;;;;;;;16.13;14.13;;;589.10;1945.60;;;;;;5013540;28;20040;-71
2021/07/07 04:56:39;;;;;;;14.95;13.43;;;589.30;1945.60;;;;;;5013377;28;20018;-68
2021/07/07 04:59:05;;;;;;;15.15;13.65;;;589.40;1920.00;;;;;;5013381;28;20030;-69
2021/07/07 05:01:31;;;;;;;15.88;14.18;;;589.40;1920.00;;;;;;5013342;28;20022;-72
2021/07/07 05:03:57;;;;;;;19.65;15.10;;;589.70;1894.40;;;;;;5013212;28;20022;-69
2021/07/07 05:06:22;;;;;;;17.02;14.18;;;589.70;1894.40;;;;;;5013264;28;20105;-68
2021/07/07 05:08:48;;;;;;;18.65;14.68;;;589.60;1920.00;;;;;;5013065;28;20068;-68
2021/07/07 05:11:15;;;;;;;16.90;14.82;;;589.70;1920.00;;;;;;5013218;28;20030;-68
2021/07/07 05:13:41;;;;;;;16.75;14.90;;;614.50;1894.40;;;;;;4995231;28;20042;-68
2021/07/07 05:16:07;;;;;;;15.90;14.40;;;614.40;1894.40;;;;;;5013226;28;20021;-69
2021/07/07 05:18:33;;;;;;;16.85;15.05;;;614.40;1894.40;;;;;;5012968;28;20022;-69
2021/07/07 05:20:59;;;;;;;18.50;15.38;;;614.50;1894.40;;;;;;5012549;28;20038;-68
2021/07/07 05:23:25;;;;;;;17.60;14.77;;;614.60;1894.40;;;;;;5013100;28;20044;-67
2021/07/07 05:25:50;;;;;;;16.67;14.85;;;614.90;1868.80;;;;;;5012969;28;20026;-67
2021/07/07 05:28:16;;;;;;;18.05;15.45;;;615.00;1843.20;;;;;;5012936;28;20037;-68
2021/07/07 05:30:42;;;;;;;16.85;14.98;;;615.00;1843.20;;;;;;5012792;28;20464;-66
2021/07/07 05:33:09;;;;;;;17.30;13.90;;;614.80;1843.20;;;;;;5012680;28;20361;-67
2021/07/07 05:35:36;;;;;;;18.30;15.90;;;614.90;1843.20;;;;;;5012728;28;20073;-68
2021/07/07 05:38:03;;;;;;;17.73;15.82;;;615.00;1843.20;;;;;;5012574;28;20422;-66
2021/07/07 05:40:28;;;;;;;17.33;15.63;;;615.10;1817.60;;;;;;5012702;28;20026;-65
2021/07/07 05:42:55;;;;;;;17.75;15.90;;;;;;;;;;5012472;28;20050;-63
2021/07/07 05:45:24;;;;;;;19.25;15.88;;;640.00;1766.40;;;;;;5012831;28;20097;-67
2021/07/07 05:47:50;;;;;;;18.75;15.43;;;615.30;1817.60;;;;;;5012756;28;20101;-66
2021/07/07 05:50:17;;;;;;;17.73;15.93;;;640.10;1792.00;;;;;;5012243;28;20102;-66
2021/07/07 05:52:43;;;;;;;17.95;15.27;;;640.20;1740.80;;;;;;5012531;28;20041;-66
2021/07/07 05:55:09;;;;;;;16.75;15.15;;;640.00;1766.40;;;;;;5012184;28;20038;-65
2021/07/07 05:57:38;;;;;;;19.13;14.88;;;640.00;1766.40;;;;;;5015762;28;20026;-66
2021/07/07 06:00:07;;;;;;;16.33;14.73;;;;;;;;;;5016388;28;20097;-67
2021/07/07 06:02:33;;;;;;;17.05;15.32;;;;;;;;;;5016456;28;20531;-67
2021/07/07 06:04:59;;;;;;;19.55;15.40;;;;;;;;;;5016159;28;20780;-66
2021/07/07 06:07:25;;;;;;;19.08;15.43;;;;;;;;;;5016455;28;20068;-68
2021/07/07 06:09:51;;;;;;;21.77;16.42;;;;;;;;;;5016381;28;20017;-68
2021/07/07 06:12:17;;;;;;;19.25;16.00;;;;;;;;;;5016199;28;20029;-68
2021/07/07 06:14:43;;;;;;;19.35;15.73;;;;;;;;;;5016310;28;20496;-68
2021/07/07 06:17:09;;;;;;;18.27;15.07;;;;;;;;;;5016135;28;20022;-70
2021/07/07 06:19:35;;;;;;;18.98;16.25;;;;;;;;;;5015778;28;20100;-68
2021/07/07 06:22:02;;;;;;;22.95;16.30;;;;;;;;;;5015961;28;20026;-67
2021/07/07 06:24:28;;;;;;;22.13;16.88;;;;;;;;;;5015963;28;20028;-68
2021/07/07 06:26:54;;;;;;;18.63;15.88;;;;;;;;;;5008818;28;20028;-66
2021/07/07 06:29:20;;;;;;;23.70;17.08;;;;;;;;;;5015980;28;20026;-68
2021/07/07 06:31:47;;;;;;;17.73;15.65;;;;;;;;;;5014962;28;20550;-68
2021/07/07 06:34:13;;;;;;;18.58;15.93;;;;;;;;;;5015729;28;20117;-68
2021/07/07 06:36:39;;;;;;;25.30;16.52;;;;;;;;;;5015776;28;20051;-69
2021/07/07 06:39:05;;;;;;;24.45;17.08;;;;;;;;;;5016049;28;20029;-70
2021/07/07 06:41:32;;;;;;;22.15;17.90;;;;;;;;;;5015835;28;20488;-70
2021/07/07 06:43:58;;;;;;;22.67;16.88;;;;;;;;;;5015612;28;20037;-67
2021/07/07 06:46:24;;;;;;;20.05;17.92;;;;;;;;;;5015638;28;20075;-67
2021/07/07 06:48:51;;;;;;;24.33;18.23;;;;;;;;;;5015412;28;20037;-69
2021/07/07 06:51:17;;;;;;;22.83;17.33;;;;;;;;;;5014250;28;20034;-68
2021/07/07 06:53:43;;;;;;;28.33;17.02;;;;;;;;;;5015530;28;20029;-68
2021/07/07 06:56:09;;;;;;;22.73;16.98;;;;;;;;;;5015622;28;20563;-71
2021/07/07 06:58:35;;;;;;;23.73;18.20;;;691.40;1561.60;;;;;;5015613;28;20085;-69
2021/07/07 07:01:01;;;;;;;29.23;16.70;;;691.40;1561.60;;;;;;5015487;28;20476;-69
2021/07/07 07:03:27;;;;;;;27.85;17.65;;;691.60;1561.60;;;;;;5015255;28;20022;-70
2021/07/07 07:05:52;;;;;;;25.92;17.73;;;691.60;1561.60;;;;;;5015344;28;20025;-69
2021/07/07 07:08:18;;;;;;;24.52;16.80;;;691.60;1561.60;;;;;;5014153;28;20030;-68
2021/07/07 07:10:45;;;;;;;24.35;17.40;;;;;;;;;;5015192;28;20022;-69
2021/07/07 07:13:11;;;;;;;22.13;17.55;;;;;;;;;;5015280;28;20114;-69
2021/07/07 07:15:37;;;;;;;27.10;17.23;;;;;;;;;;5015087;28;20030;-70
2021/07/07 07:18:04;;;;;;;25.42;17.73;;;;;;;;;;5014998;28;20469;-71
2021/07/07 07:20:30;;;;;;;24.08;17.40;;;;;;;;;;5014597;28;20049;-70
2021/07/07 07:23:00;;;;;;;23.30;18.08;;;;;;;;;;5015049;28;20021;-70
2021/07/07 07:25:27;;;;;;;27.05;17.05;;;;;;;;;;5014994;28;20022;-71
2021/07/07 07:27:54;;;;;;;22.40;16.88;;;;;;;;;;5014851;28;20026;-71
2021/07/07 07:30:20;;;;;;;28.63;18.38;;;;;;;;;;5015018;28;20034;-68
2021/07/07 07:32:47;;;;;;;25.98;17.38;;;;;;;;;;5014821;28;20022;-66
2021/07/07 07:35:14;;;;;;;23.48;17.40;;;;;;;;;;5014462;28;20391;-68
2021/07/07 07:37:47;;;;;;;21.38;15.85;;;;;;;;;;5014840;28;20376;-66
2021/07/07 07:40:13;;;;;;;23.15;18.75;;;;;;;;;;5014735;28;20108;-66
2021/07/07 07:42:44;;;;;;;23.02;17.48;;;;;;;;;;5014622;28;20022;-67
2021/07/07 07:45:11;;;;;;;21.15;17.35;;;;;;;;;;5014563;28;20026;-68
2021/07/07 07:47:37;;;;;;;23.65;17.27;;;;;;;;;;5014622;28;20026;-68
2021/07/07 07:50:04;;;;;;;24.52;17.50;;;;;;;;;;5014213;28;20029;-67
2021/07/07 07:52:30;;;;;;;27.25;17.23;;;;;;;;;;5014719;28;20026;-69
2021/07/07 07:54:56;;;;;;;23.27;16.75;;;;;;;;;;5013983;28;20041;-69
2021/07/07 07:57:22;;;;;;;21.20;17.23;;;;;;;;;;5014399;28;20029;-67
2021/07/07 07:59:48;;;;;;;26.15;16.83;;;;;;;;;;5014243;28;20045;-67
2021/07/07 08:02:15;;;;;;;26.10;16.50;;;;;;;;;;5014121;28;20026;-67
2021/07/07 08:04:41;;;;;;;26.25;18.27;;;;;;;;;;5014307;28;20026;-67
2021/07/07 08:07:07;;;;;;;22.13;16.25;;;;;;;;;;5014031;28;20026;-69
2021/07/07 08:09:33;;;;;;;23.58;15.68;;;;;;;;;;5014182;28;20030;-68
2021/07/07 08:11:59;;;;;;;21.30;16.55;;;;;;;;;;5014078;28;20488;-68
2021/07/07 08:14:25;;;;;;;22.77;14.57;;;;;;;;;;5013948;28;20106;-68
2021/07/07 08:16:51;;;;;;;24.20;17.02;;;;;;;;;;5013998;28;20033;-69
2021/07/07 08:19:17;;;;;;;23.92;16.63;;;;;;;;;;5013006;28;20026;-67
2021/07/07 08:21:43;;;;;;;19.35;14.82;;;;;;;;;;5013600;28;20037;-70
2021/07/07 08:24:09;;;;;;;20.13;15.85;;;;;;;;;;5013782;28;20093;-69
2021/07/07 08:26:36;;;;;;;18.67;15.77;;;;;;;;;;5013715;28;20037;-71
2021/07/07 08:29:02;;;;;;;18.73;14.70;;;;;;;;;;5013704;28;20053;-69
2021/07/07 08:31:28;;;;;;;19.00;15.65;;;;;;;;;;5013662;28;20022;-67
2021/07/07 08:33:55;;;;;;;17.50;15.55;;;;;;;;;;5013640;28;20488;-67
2021/07/07 08:36:25;;;;;;;16.58;13.70;;;;;;;;;;5013052;28;20106;-67
2021/07/07 08:38:51;;;;;;;17.17;14.43;;;;;;;;;;5013618;28;20021;-67
2021/07/07 08:41:17;;;;;;;20.92;14.30;;;;;;;;;;5013458;28;20503;-69
2021/07/07 08:43:44;;;;;;;17.42;14.10;;;;;;;;;;5013554;28;20477;-70
2021/07/07 08:46:10;;;;;;;14.70;13.10;;;;;;;;;;5013532;28;20380;-70
2021/07/07 08:48:37;;;;;;;16.05;14.30;;;;;;;;;;5013321;28;20014;-70
2021/07/07 08:51:04;;;;;;;15.48;13.88;;;;;;;;;;5013103;28;20026;-69
2021/07/07 08:53:30;;;;;;;17.73;14.80;;;;;;;;;;5013149;28;20064;-70
2021/07/07 08:55:58;;;;;;;16.88;14.98;;;;;;;;;;5013371;28;20022;-70
2021/07/07 08:58:24;;;;;;;16.35;14.63;;;;;;;;;;5013039;28;20018;-70
2021/07/07 09:00:50;;;;;;;16.65;14.75;;;;;;;;;;5013226;28;20053;-69
2021/07/07 09:03:18;;;;;;;17.25;14.90;;;;;;;;;;5012872;28;20022;-69
2021/07/07 09:06:05;;;;;;;17.67;15.88;;;;;;;;;;5013223;28;20025;-69
2021/07/07 09:08:33;;;;;;;16.52;14.68;;;;;;;;;;5008357;28;20064;-70
2021/07/07 09:11:16;;;;;;;17.58;15.57;;;;;;;;;;5013090;28;20401;-70
2021/07/07 09:13:42;;;;;;;17.33;15.63;;;;;;;;;;5008676;28;20116;-70
2021/07/07 09:16:13;;;;;;;16.98;15.27;;;;;;;;;;5013010;28;20042;-70
2021/07/07 09:18:39;;;;;;;15.27;13.77;;;;;;;;;;5007335;28;20018;-68
2021/07/07 09:21:25;;;;;;;15.73;13.45;;;;;;;;;;5012851;28;20160;-68
2021/07/07 09:23:51;;;;;;;15.95;14.35;;;;;;;;;;5008279;28;20435;-69
2021/07/07 09:26:25;;;;;;;14.93;13.32;;;;;;;;;;5012617;28;20053;-68
2021/07/07 09:28:51;;;;;;;17.20;14.10;;;;;;;;;;5007774;28;20026;-67
2021/07/07 09:31:34;;;;;;;17.08;14.68;;;;;;;;;;5011982;28;20025;-68
2021/07/07 09:34:10;;;;;;;15.68;14.18;;;;;;;;;;5012805;28;20038;-69
2021/07/07 09:36:38;;;;;;;15.68;14.20;;;;;;;;;;5012646;28;20109;-68
2021/07/07 09:39:04;;;;;;;14.15;12.65;;;;;;;;;;5012824;28;20081;-68
2021/07/07 09:41:31;;;;;;;16.05;14.38;;;;;;;;;;5012711;28;20101;-68
2021/07/07 09:43:58;;;;;;;14.77;13.10;;;;;;;;;;5012342;28;20500;-67
2021/07/07 09:46:24;;;;;;;15.13;13.55;;;;;;;;;;5012284;28;20476;-70
2021/07/07 09:48:51;;;;;;;15.50;14.00;;;;;;;;;;5012128;28;20069;-70
2021/07/07 09:51:18;;;;;;;13.30;12.10;;;;;;;;;;5011916;28;20065;-69
2021/07/07 09:53:44;;;;;;;15.70;13.88;;;794.50;1152.00;;;;;;5011897;28;20036;-69
2021/07/07 09:56:10;;;;;;;16.27;14.57;;;794.30;1177.60;;;;;;5012162;28;20412;-68
2021/07/07 09:58:36;;;;;;;19.15;14.18;;;;;;;;;;5012074;28;20026;-72
2021/07/07 10:01:02;;;;;;;14.73;13.23;;;;;;;;;;5012020;28;20022;-72
2021/07/07 10:03:28;;;;;;;15.38;12.98;;;;;;;;;;5011947;28;20030;-70
2021/07/07 10:05:54;;;;;;;14.90;13.40;;;;;;;;;;5011963;28;20018;-68
2021/07/07 10:08:21;;;;;;;14.73;12.95;;;;;;;;;;5011659;28;20034;-71
2021/07/07 10:10:48;;;;;;;15.55;13.95;;;;;;;;;;5012143;28;20018;-75
2021/07/07 10:13:15;;;;;;;13.02;11.75;;;;;;;;;;5011605;28;20041;-71
2021/07/07 10:15:41;;;;;;;34.38;29.85;;;;;;;;;;5010705;28;20053;-69
2021/07/07 10:18:09;;;;;;;19.70;14.48;;;820.00;1024.00;;;;;;5012061;28;20510;-70
2021/07/07 10:20:36;;;;;;;20.35;16.40;;;;;;;;;;5011229;28;20068;-70
2021/07/07 10:23:03;;;;;;;15.48;14.05;;;;;;;;;;5011353;28;20038;-69
2021/07/07 10:25:30;;;;;;;18.83;15.88;;;;;;;;;;5011403;28;20108;-70
2021/07/07 10:28:00;;;;;;;30.55;26.90;;;845.60;947.20;;;;;;5011450;28;20100;-69
2021/07/07 10:30:50;;;;;;;31.60;22.60;;;845.70;947.20;;;;;;5011722;28;20018;-69
2021/07/07 10:33:16;;;;;;;30.98;24.38;;;870.50;947.20;;;;;;5011429;28;20267;-68
2021/07/07 10:35:42;;;;;;;53.20;46.08;;;870.40;947.20;;;;;;5011358;28;20034;-69
2021/07/07 10:38:08;;;;;;;52.75;47.10;;;870.40;947.20;;;;;;5010155;28;20060;-69
2021/07/07 10:40:40;;;;;;;28.20;25.05;;;870.50;998.40;;;;;;5011525;28;20029;-69
2021/07/07 10:43:06;;;;;;;60.38;53.78;;;845.70;972.80;;;;;;5013376;28;20029;-69
2021/07/07 10:45:41;;;;;;;17.83;16.08;;;845.70;998.40;;;;;;5013731;28;20030;-69
2021/07/07 10:48:25;;;;;;;33.15;29.80;;;870.70;947.20;;;;;;5015066;28;20026;-69
2021/07/07 10:51:02;;;;;;;45.33;40.45;;;870.50;947.20;;;;;;4995732;28;20469;-70
2021/07/07 10:53:35;;;;;;;16.50;14.82;;;870.50;972.80;;;;;;5014812;28;20030;-71
2021/07/07 10:56:04;;;;;;;61.45;54.88;;;870.50;947.20;;;;;;5014632;28;20025;-71
2021/07/07 10:58:38;;;;;;;69.13;58.08;;;870.40;972.80;;;;;;4996978;28;20029;-69
2021/07/07 11:01:23;;;;;;;69.05;61.65;;;845.70;998.40;;;;;;5014592;28;20018;-70
2021/07/07 11:04:09;;;;;;;76.53;68.25;;;845.60;998.40;;;;;;5014874;28;20026;-70
2021/07/07 11:06:38;;;;;;;56.85;49.97;;;845.70;972.80;;;;;;5014580;28;20022;-70
2021/07/07 11:09:11;;;;;;;24.52;21.90;;;870.50;921.60;;;;;;5014799;28;20026;-69
2021/07/07 11:11:37;;;;;;;39.35;35.35;;;870.70;844.80;;;;;;5014572;28;20476;-69
2021/07/07 11:14:19;;;;;;;59.00;52.70;;;870.70;870.40;;;;;;5014159;28;20026;-71
2021/07/07 11:16:50;;;;;;;32.53;28.30;;;870.80;870.40;;;;;;5014509;28;20390;-69
2021/07/07 11:19:58;;;;;;;48.00;42.95;;;870.70;947.20;;;;;;5014129;28;20064;-70
2021/07/07 11:22:24;;;;;;;45.20;40.28;;;870.70;947.20;;;;;;4931928;29;20043;-69
2021/07/07 11:24:57;;;;;;;34.65;31.10;;;870.50;947.20;;;;;;4934855;29;20095;-70
2021/07/07 11:27:23;;;;;;;14.95;13.52;;;870.70;921.60;;;;;;4930887;29;20067;-69
2021/07/07 11:29:50;;;;;;;42.50;35.47;;;870.90;870.40;;;;;;4934606;29;20235;-68
2021/07/07 11:32:35;;;;;;;21.25;19.05;;;870.70;896.00;;;;;;4934701;29;20028;-71
2021/07/07 11:35:04;;;;;;;51.20;45.90;;;870.90;896.00;;;;;;4934397;29;20395;-70
2021/07/07 11:37:32;;;;;;;23.95;21.42;;;870.90;947.20;;;;;;4934422;29;20364;-69
2021/07/07 11:40:04;;;;;;;21.77;19.55;;;870.80;819.20;;;;;;4933986;29;20122;-70
2021/07/07 11:42:30;;;;;;;37.13;33.17;;;871.10;819.20;;;;;;4934575;29;20383;-70
2021/07/07 11:44:56;;;;;;;22.58;20.27;;;870.90;921.60;;;;;;4933846;29;20028;-69
2021/07/07 11:47:33;;;;;;;27.38;24.60;;;870.90;844.80;;;;;;4934372;29;20042;-70
2021/07/07 11:50:10;;;;;;;19.55;17.60;;;871.10;896.00;;;;;;4934107;29;20040;-69
2021/07/07 11:52:59;;;;;;;14.75;13.32;;;870.80;921.60;;;;;;4952284;28;20038;-70
2021/07/07 11:55:52;;;;;;;16.90;13.93;;;871.10;844.80;;;;;;5012037;28;20034;-69
2021/07/07 11:58:18;;;;;;;19.77;17.50;;;871.20;819.20;;;;;;5013477;28;20029;-70
2021/07/07 12:00:44;;;;;;;17.48;15.73;;;871.10;870.40;;;;;;5013806;28;20018;-69
2021/07/07 12:03:10;;;;;;;15.25;13.63;;;870.90;870.40;;;;;;5013786;28;20025;-69
2021/07/07 12:05:36;;;;;;;14.15;12.43;;;870.90;793.60;;;;;;5013924;28;20022;-70
2021/07/07 12:08:33;;;;;;;12.75;8.40;;;871.10;819.20;;;;;;5013548;28;20029;-70
2021/07/07 12:11:09;;;;;;;20.83;18.73;;;870.90;896.00;;;;;;5012638;28;20497;-69
2021/07/07 12:13:36;;;;;;;11.05;9.95;;;870.80;870.40;;;;;;5013064;28;20053;-70
2021/07/07 12:16:20;;;;;;;14.15;12.77;;;870.90;793.60;;;;;;5013655;28;20377;-70
2021/07/07 12:18:58;;;;;;;13.90;11.43;;;871.00;768.00;;;;;;5013058;28;20037;-70
2021/07/07 12:21:24;;;;;;;16.08;14.48;;;871.10;665.60;;;;;;5013274;28;20122;-69
2021/07/07 12:24:03;;;;;;;14.60;13.10;;;871.00;870.40;;;;;;5013171;28;20084;-71
2021/07/07 12:26:34;;;;;;;17.27;15.52;;;870.90;870.40;;;;;;5014161;28;20836;-70
2021/07/07 12:29:01;;;;;;;16.15;14.32;;;870.90;870.40;;;;;;5015081;28;20026;-68
2021/07/07 12:31:31;;;;;;;13.02;11.45;;;871.20;819.20;;;;;;5021761;28;20026;-69
2021/07/07 12:33:57;;;;;;;15.63;14.02;;;871.00;870.40;;;;;;5019583;28;20069;-71
2021/07/07 12:36:27;;;;;;;14.43;13.02;;;870.70;819.20;;;;;;4995732;28;20056;-70
2021/07/07 12:38:58;;;;;;;31.92;26.48;;;870.60;896.00;;;;;;5002316;28;20061;-70
2021/07/07 12:41:39;;;;;;;21.90;18.55;;;870.50;819.20;;;;;;5012911;28;20025;-69
2021/07/07 12:46:53;;;;;;;51.30;41.30;;;845.70;896.00;;;;;;5012444;28;20025;-69
2021/07/07 12:49:34;;;;;;;55.00;41.20;;;845.70;921.60;;;;;;5012891;28;20057;-70
2021/07/07 12:52:20;;;;;;;;;;;845.50;921.60;;;;;;5013170;28;20530;-71
2021/07/07 12:55:05;;;;;;;68.53;52.25;;;870.40;844.80;;;;;;5012230;28;19913;-69
2021/07/07 12:57:43;;;;;;;124.25;97.18;;;845.70;947.20;;;;;;5012629;28;20026;-71
2021/07/07 13:00:11;;;;;;;91.68;73.60;;;845.70;947.20;;;;;;5026872;28;20025;-71
2021/07/07 13:02:49;;;;;;;103.53;83.65;;;845.50;921.60;;;;;;5012666;28;20026;-70
2021/07/07 13:05:15;;;;;;;72.43;58.95;;;845.50;947.20;;;;;;5014191;28;20049;-71
2021/07/07 13:07:42;;;;;;;84.75;67.95;;;845.40;947.20;;;;;;5024212;28;20472;-70
2021/07/07 13:10:09;;;;;;;94.72;74.10;;;;;;;;;;5012316;28;20396;-69
2021/07/07 13:12:35;;;;;;;93.15;76.50;;;;;;;;;;5012588;28;20025;-68
2021/07/07 13:15:01;;;;;;;89.05;70.40;;;;;;;;;;5012163;28;20034;-68
2021/07/07 13:17:27;;;;;;;71.80;58.20;;;;;;;;;;5012122;28;20538;-68
2021/07/07 13:20:00;;;;;;;101.13;82.00;;;;;;;;;;5016650;28;20052;-69
2021/07/07 13:22:26;;;;;;;71.38;57.28;;;;;;;;;;5012415;28;20620;-68
2021/07/07 13:24:53;;;;;;;55.45;45.50;;;;;;;;;;5012541;28;20377;-70
2021/07/07 13:27:19;;;;;;;59.65;47.72;;;;;;;;;;5012013;28;20025;-70
2021/07/07 13:29:48;;;;;;;54.15;43.58;;;;;;;;;;5012278;28;20052;-71